createdAt,value
2018-09-04T00:00:40.016Z,100.00
2018-09-04T00:03:08.185Z,100.00
2018-09-04T00:05:36.219Z,100.00
2018-09-04T00:08:04.450Z,100.00
2018-09-04T00:10:32.683Z,100.00
2018-09-04T00:13:00.906Z,100.00
2018-09-04T00:15:29.074Z,100.00
2018-09-04T00:17:57.171Z,100.00
2018-09-04T00:20:25.242Z,100.00
2018-09-04T00:22:53.411Z,100.00
2018-09-04T00:25:21.464Z,100.00
2018-09-04T00:27:49.576Z,100.00
2018-09-04T00:30:17.745Z,100.00
2018-09-04T00:32:45.900Z,100.00
2018-09-04T00:35:14.049Z,100.00
2018-09-04T00:37:42.157Z,100.00
2018-09-04T00:40:10.478Z,100.00
2018-09-04T00:42:38.805Z,100.00
2018-09-04T00:45:06.961Z,100.00
2018-09-04T00:47:34.994Z,100.00
2018-09-04T00:50:03.301Z,100.00
2018-09-04T00:52:31.524Z,100.00
2018-09-04T00:54:59.724Z,100.00
2018-09-04T00:57:27.804Z,100.00
2018-09-04T00:59:55.965Z,100.00
2018-09-04T01:02:24.083Z,100.00
2018-09-04T01:04:52.104Z,100.00
2018-09-04T01:07:20.095Z,100.00
2018-09-04T01:09:48.105Z,100.00
2018-09-04T01:12:16.244Z,100.00
2018-09-04T01:14:44.416Z,100.00
2018-09-04T01:17:12.464Z,100.00
2018-09-04T01:19:40.673Z,100.00
2018-09-04T01:22:08.738Z,100.00
2018-09-04T01:24:36.723Z,100.00
2018-09-04T01:27:04.846Z,100.00
2018-09-04T01:29:32.803Z,100.00
2018-09-04T01:32:00.767Z,100.00
2018-09-04T01:34:28.808Z,100.00
2018-09-04T01:36:56.822Z,100.00
2018-09-04T01:39:24.914Z,100.00
2018-09-04T01:41:53.003Z,100.00
2018-09-04T01:44:20.990Z,100.00
2018-09-04T01:46:49.049Z,100.00
2018-09-04T01:49:17.101Z,100.00
2018-09-04T01:51:45.164Z,100.00
2018-09-04T01:54:13.272Z,100.00
2018-09-04T01:56:41.466Z,100.00
2018-09-04T01:59:09.755Z,100.00
2018-09-04T02:01:37.921Z,100.00
2018-09-04T02:04:06.300Z,100.00
2018-09-04T02:06:34.340Z,100.00
2018-09-04T02:09:02.613Z,100.00
2018-09-04T02:11:30.704Z,100.00
2018-09-04T02:13:59.001Z,100.00
2018-09-04T02:16:27.215Z,100.00
2018-09-04T02:18:55.213Z,100.00
2018-09-04T02:21:23.313Z,100.00
2018-09-04T02:23:51.354Z,100.00
2018-09-04T02:26:19.437Z,100.00
2018-09-04T02:28:47.507Z,100.00
2018-09-04T02:31:15.560Z,100.00
2018-09-04T02:33:44.890Z,100.00
2018-09-04T02:36:13.014Z,100.00
2018-09-04T02:38:41.029Z,100.00
2018-09-04T02:41:09.208Z,100.00
2018-09-04T02:43:37.271Z,100.00
2018-09-04T02:46:05.723Z,100.00
2018-09-04T02:48:34.012Z,100.00
2018-09-04T02:51:02.130Z,100.00
2018-09-04T02:53:30.267Z,100.00
2018-09-04T02:55:58.762Z,100.00
2018-09-04T02:58:26.895Z,100.00
2018-09-04T03:00:55.230Z,100.00
2018-09-04T03:03:23.351Z,100.00
2018-09-04T03:05:51.537Z,100.00
2018-09-04T03:08:19.625Z,100.00
2018-09-04T03:10:47.742Z,100.00
2018-09-04T03:13:15.762Z,100.00
2018-09-04T03:15:43.981Z,100.00
2018-09-04T03:18:12.280Z,100.00
2018-09-04T03:20:40.530Z,100.00
2018-09-04T03:23:08.764Z,100.00
2018-09-04T03:25:37.017Z,100.00
2018-09-04T03:28:05.243Z,100.00
2018-09-04T03:30:33.512Z,100.00
2018-09-04T03:33:01.490Z,100.00
2018-09-04T03:35:29.537Z,100.00
2018-09-04T03:37:57.565Z,100.00
2018-09-04T03:40:25.749Z,100.00
2018-09-04T03:42:53.924Z,100.00
2018-09-04T03:45:22.021Z,100.00
2018-09-04T03:47:50.412Z,100.00
2018-09-04T03:50:18.559Z,100.00
2018-09-04T03:52:46.857Z,100.00
2018-09-04T03:55:15.388Z,100.00
2018-09-04T03:57:43.643Z,100.00
2018-09-04T04:00:12.280Z,100.00
2018-09-04T04:02:40.844Z,100.00
2018-09-04T04:05:09.413Z,100.00
2018-09-04T04:07:37.737Z,100.00
2018-09-04T04:10:06.149Z,100.00
2018-09-04T04:12:34.486Z,100.00
2018-09-04T04:15:03.031Z,100.00
2018-09-04T04:17:31.398Z,100.00
2018-09-04T04:19:59.721Z,100.00
2018-09-04T04:22:28.045Z,100.00
2018-09-04T04:24:56.368Z,100.00
2018-09-04T04:27:24.674Z,100.00
2018-09-04T04:29:52.977Z,100.00
2018-09-04T04:32:21.473Z,100.00
2018-09-04T04:34:49.739Z,100.00
2018-09-04T04:37:18.033Z,100.00
2018-09-04T04:39:46.345Z,100.00
2018-09-04T04:42:14.639Z,100.00
2018-09-04T04:44:42.931Z,100.00
2018-09-04T04:47:11.273Z,100.00
2018-09-04T04:49:39.526Z,100.00
2018-09-04T04:52:07.761Z,100.00
2018-09-04T04:55:00.865Z,100.00
2018-09-04T04:57:38.168Z,100.00
2018-09-04T05:00:09.586Z,100.00
2018-09-04T05:02:37.909Z,100.00
2018-09-04T05:05:06.883Z,100.00
2018-09-04T05:07:35.675Z,100.00
2018-09-04T05:10:04.114Z,100.00
2018-09-04T05:12:32.583Z,100.00
2018-09-04T05:15:00.986Z,100.00
2018-09-04T05:17:29.461Z,100.00
2018-09-04T05:19:57.844Z,100.00
2018-09-04T05:22:26.167Z,100.00
2018-09-04T05:24:54.856Z,100.00
2018-09-04T05:27:23.320Z,100.00
2018-09-04T05:29:51.707Z,100.00
2018-09-04T05:32:25.239Z,100.00
2018-09-04T05:34:53.659Z,100.00
2018-09-04T05:37:22.059Z,100.00
2018-09-04T05:39:50.731Z,100.00
2018-09-04T05:42:26.433Z,100.00
2018-09-04T05:44:54.639Z,100.00
2018-09-04T05:47:33.075Z,100.00
2018-09-04T05:50:18.854Z,100.00
2018-09-04T05:52:47.257Z,100.00
2018-09-04T05:55:43.511Z,100.00
2018-09-04T05:58:54.158Z,100.00
2018-09-04T06:01:22.895Z,100.00
2018-09-04T06:03:51.353Z,100.00
2018-09-04T06:06:19.586Z,100.00
2018-09-04T06:08:47.937Z,100.00
2018-09-04T06:11:16.009Z,100.00
2018-09-04T06:13:44.229Z,100.00
2018-09-04T06:16:12.353Z,100.00
2018-09-04T06:18:40.527Z,100.00
2018-09-04T06:21:08.635Z,100.00
2018-09-04T06:23:36.732Z,100.00
2018-09-04T06:26:04.847Z,100.00
2018-09-04T06:28:33.122Z,100.00
2018-09-04T06:31:01.333Z,100.00
2018-09-04T06:33:29.549Z,100.00
2018-09-04T06:35:57.917Z,100.00
2018-09-04T06:38:26.294Z,100.00
2018-09-04T06:40:54.513Z,100.00
2018-09-04T06:43:22.726Z,100.00
2018-09-04T06:45:51.007Z,100.00
2018-09-04T06:48:25.569Z,100.00
2018-09-04T06:51:19.619Z,100.00
2018-09-04T06:53:47.935Z,100.00
2018-09-04T06:56:16.141Z,100.00
2018-09-04T06:58:44.565Z,100.00
2018-09-04T07:01:12.789Z,100.00
2018-09-04T07:03:41.201Z,100.00
2018-09-04T07:06:09.895Z,100.00
2018-09-04T07:08:38.375Z,100.00
2018-09-04T07:11:06.822Z,100.00
2018-09-04T07:13:35.042Z,100.00
2018-09-04T07:16:03.720Z,100.00
2018-09-04T07:18:32.471Z,100.00
2018-09-04T07:21:00.853Z,98.03
2018-09-04T07:23:29.366Z,95.71
2018-09-04T07:25:58.307Z,94.52
2018-09-04T07:28:26.817Z,96.07
2018-09-04T07:30:55.506Z,98.44
2018-09-04T07:33:25.492Z,95.53
2018-09-04T07:35:54.062Z,95.46
2018-09-04T07:38:22.845Z,94.40
2018-09-04T07:40:51.367Z,90.00
2018-09-04T07:43:20.143Z,89.93
2018-09-04T07:45:48.302Z,88.92
2018-09-04T07:48:16.568Z,79.81
2018-09-04T07:50:44.647Z,79.87
2018-09-04T07:53:12.742Z,80.21
2018-09-04T07:55:41.053Z,85.59
2018-09-04T07:58:09.561Z,82.46
2018-09-04T08:00:38.118Z,86.18
2018-09-04T08:03:06.426Z,81.45
2018-09-04T08:05:34.911Z,78.84
2018-09-04T08:08:03.349Z,80.42
2018-09-04T08:10:35.947Z,81.14
2018-09-04T08:13:06.275Z,84.64
2018-09-04T08:15:35.218Z,82.37
2018-09-04T08:18:03.277Z,81.59
2018-09-04T08:20:31.464Z,77.21
2018-09-04T08:22:59.487Z,76.25
2018-09-04T08:25:27.778Z,76.35
2018-09-04T08:27:55.866Z,76.69
2018-09-04T08:30:24.264Z,75.74
2018-09-04T08:32:52.466Z,73.91
2018-09-04T08:35:20.530Z,76.18
2018-09-04T08:37:50.928Z,72.21
2018-09-04T08:40:19.144Z,73.44
2018-09-04T08:42:47.282Z,64.24
2018-09-04T08:45:15.499Z,72.53
2018-09-04T08:47:43.841Z,66.98
2018-09-04T08:50:12.074Z,68.18
2018-09-04T08:52:40.383Z,62.71
2018-09-04T08:55:08.715Z,62.50
2018-09-04T08:57:36.763Z,55.80
2018-09-04T09:00:05.350Z,62.81
2018-09-04T09:02:33.580Z,59.23
2018-09-04T09:05:01.729Z,52.10
2018-09-04T09:07:29.904Z,57.77
2018-09-04T09:09:58.172Z,65.32
2018-09-04T09:12:26.335Z,65.71
2018-09-04T09:14:54.448Z,56.02
2018-09-04T09:17:22.719Z,55.58
2018-09-04T09:19:50.883Z,55.98
2018-09-04T09:22:19.147Z,59.97
2018-09-04T09:24:47.384Z,54.44
2018-09-04T09:27:15.794Z,55.22
2018-09-04T09:29:44.379Z,57.45
2018-09-04T09:32:12.654Z,53.87
2018-09-04T09:34:40.971Z,58.57
2018-09-04T09:37:09.311Z,53.27
2018-09-04T09:39:37.423Z,59.79
2018-09-04T09:42:05.469Z,52.23
2018-09-04T09:44:33.801Z,53.97
2018-09-04T09:47:04.189Z,52.67
2018-09-04T09:49:33.227Z,51.52
2018-09-04T09:52:01.510Z,52.54
2018-09-04T09:54:29.803Z,53.78
2018-09-04T09:56:58.927Z,49.39
2018-09-04T09:59:28.889Z,48.36
2018-09-04T10:02:02.882Z,49.38
2018-09-04T10:04:31.009Z,49.12
2018-09-04T10:06:59.177Z,47.92
2018-09-04T10:09:27.335Z,49.40
2018-09-04T10:11:55.491Z,46.75
2018-09-04T10:14:23.679Z,47.71
2018-09-04T10:16:52.005Z,47.62
2018-09-04T10:19:20.208Z,44.89
2018-09-04T10:21:48.558Z,48.04
2018-09-04T10:24:16.879Z,48.97
2018-09-04T10:26:45.328Z,44.88
2018-09-04T10:29:13.565Z,45.36
2018-09-04T10:31:41.841Z,48.98
2018-09-04T10:34:10.202Z,48.81
2018-09-04T10:36:38.525Z,49.90
2018-09-04T10:39:12.943Z,46.64
2018-09-04T10:41:41.225Z,50.46
2018-09-04T10:44:09.634Z,45.48
2018-09-04T10:46:37.828Z,46.51
2018-09-04T10:49:06.128Z,47.37
2018-09-04T10:51:34.324Z,46.36
2018-09-04T10:54:02.612Z,42.94
2018-09-04T10:56:30.858Z,46.95
2018-09-04T10:58:59.075Z,43.72
2018-09-04T11:01:27.166Z,45.10
2018-09-04T11:03:55.508Z,42.90
2018-09-04T11:06:23.855Z,46.43
2018-09-04T11:08:52.212Z,44.57
2018-09-04T11:11:20.651Z,44.63
2018-09-04T11:13:49.133Z,44.25
2018-09-04T11:16:17.833Z,45.25
2018-09-04T11:18:46.168Z,47.30
2018-09-04T11:21:14.318Z,47.47
2018-09-04T11:23:42.510Z,46.13
2018-09-04T11:26:10.751Z,46.16
2018-09-04T11:28:42.561Z,43.58
2018-09-04T11:31:10.945Z,44.67
2018-09-04T11:33:39.180Z,43.71
2018-09-04T11:36:07.331Z,45.21
2018-09-04T11:38:35.426Z,45.40
2018-09-04T11:41:03.941Z,47.76
2018-09-04T11:43:34.021Z,45.79
2018-09-04T11:46:02.427Z,46.76
2018-09-04T11:48:30.647Z,44.94
2018-09-04T11:50:59.307Z,47.66
2018-09-04T11:53:27.537Z,45.91
2018-09-04T11:55:55.967Z,44.46
2018-09-04T11:58:24.063Z,44.42
2018-09-04T12:00:52.333Z,45.16
2018-09-04T12:03:20.806Z,43.68
2018-09-04T12:05:49.073Z,46.09
2018-09-04T12:08:17.188Z,45.34
2018-09-04T12:10:45.665Z,42.88
2018-09-04T12:13:18.377Z,46.39
2018-09-04T12:15:46.489Z,41.78
2018-09-04T12:18:14.733Z,43.72
2018-09-04T12:20:44.608Z,43.63
2018-09-04T12:23:13.019Z,43.20
2018-09-04T12:25:41.974Z,45.27
2018-09-04T12:28:10.147Z,43.99
2018-09-04T12:30:38.641Z,44.04
2018-09-04T12:33:07.221Z,44.04
2018-09-04T12:35:35.824Z,42.06
2018-09-04T12:38:04.917Z,43.28
2018-09-04T12:40:33.372Z,45.82
2018-09-04T12:43:02.799Z,43.48
2018-09-04T12:45:36.999Z,43.39
2018-09-04T12:48:05.331Z,43.08
2018-09-04T12:50:34.461Z,42.80
2018-09-04T12:53:02.814Z,43.57
2018-09-04T12:55:31.469Z,38.90
2018-09-04T12:58:00.390Z,42.56
2018-09-04T13:00:28.633Z,39.61
2018-09-04T13:02:57.265Z,40.79
2018-09-04T13:05:25.601Z,41.07
2018-09-04T13:07:53.764Z,39.65
2018-09-04T13:10:21.954Z,42.06
2018-09-04T13:12:50.121Z,38.96
2018-09-04T13:15:18.508Z,40.94
2018-09-04T13:17:46.789Z,39.40
2018-09-04T13:20:15.009Z,43.32
2018-09-04T13:22:43.220Z,44.92
2018-09-04T13:25:11.560Z,45.98
2018-09-04T13:27:39.672Z,45.51
2018-09-04T13:30:09.369Z,46.27
2018-09-04T13:32:38.663Z,43.65
2018-09-04T13:35:08.031Z,43.41
2018-09-04T13:37:36.352Z,45.73
2018-09-04T13:40:04.955Z,44.99
2018-09-04T13:42:33.337Z,42.62
2018-09-04T13:45:01.870Z,45.01
2018-09-04T13:47:33.449Z,44.90
2018-09-04T13:50:01.756Z,44.04
2018-09-04T13:52:31.972Z,42.70
2018-09-04T13:55:00.539Z,44.92
2018-09-04T13:57:29.392Z,44.94
2018-09-04T13:59:57.713Z,45.60
2018-09-04T14:02:26.394Z,44.42
2018-09-04T14:04:54.549Z,44.10
2018-09-04T14:07:22.914Z,45.82
2018-09-04T14:09:51.182Z,46.15
2018-09-04T14:12:19.491Z,46.27
2018-09-04T14:17:46.138Z,47.04
2018-09-04T14:20:14.319Z,49.12
2018-09-04T14:22:42.499Z,47.85
2018-09-04T14:25:10.820Z,48.60
2018-09-04T14:27:38.987Z,47.56
2018-09-04T14:30:21.163Z,45.65
2018-09-04T14:32:35.512Z,48.77
2018-09-04T14:35:03.894Z,51.09
2018-09-04T14:37:32.321Z,49.59
2018-09-04T14:40:08.175Z,47.74
2018-09-04T14:42:36.461Z,47.95
2018-09-04T14:45:04.798Z,47.41
2018-09-04T14:47:33.060Z,49.96
2018-09-04T14:50:01.341Z,48.22
2018-09-04T14:52:35.801Z,47.65
2018-09-04T14:55:04.141Z,48.26
2018-09-04T14:57:32.344Z,49.39
2018-09-04T15:00:00.491Z,47.86
2018-09-04T15:02:28.720Z,47.87
2018-09-04T15:04:56.781Z,50.34
2018-09-04T15:07:25.085Z,50.83
2018-09-04T15:09:53.226Z,50.09
2018-09-04T15:12:21.440Z,47.63
2018-09-04T15:14:49.786Z,50.83
2018-09-04T15:17:17.997Z,51.32
2018-09-04T15:19:46.329Z,49.74
2018-09-04T15:22:14.704Z,51.91
2018-09-04T15:24:43.005Z,49.63
2018-09-04T15:27:11.419Z,53.18
2018-09-04T15:29:39.710Z,54.38
2018-09-04T15:32:08.112Z,51.43
2018-09-04T15:34:36.415Z,56.02
2018-09-04T15:37:04.757Z,58.30
2018-09-04T15:39:33.123Z,57.90
2018-09-04T15:42:01.237Z,57.88
2018-09-04T15:44:29.441Z,58.60
2018-09-04T15:46:57.798Z,57.91
2018-09-04T15:49:31.452Z,57.94
2018-09-04T15:51:59.636Z,57.81
2018-09-04T15:54:29.636Z,58.72
2018-09-04T15:56:58.447Z,58.52
2018-09-04T15:59:27.368Z,61.24
2018-09-04T16:01:55.919Z,61.43
2018-09-04T16:04:24.384Z,64.40
2018-09-04T16:06:52.809Z,64.46
2018-09-04T16:09:21.188Z,65.48
2018-09-04T16:11:49.575Z,66.61
2018-09-04T16:14:17.834Z,67.39
2018-09-04T16:16:46.087Z,67.21
2018-09-04T16:19:14.348Z,69.13
2018-09-04T16:21:42.473Z,70.77
2018-09-04T16:24:11.894Z,71.35
2018-09-04T16:26:40.493Z,71.71
2018-09-04T16:29:08.937Z,73.04
2018-09-04T16:31:37.837Z,72.38
2018-09-04T16:34:06.408Z,71.71
2018-09-04T16:36:34.856Z,73.21
2018-09-04T16:39:04.676Z,73.81
2018-09-04T16:41:33.043Z,72.96
2018-09-04T16:44:01.192Z,74.02
2018-09-04T16:46:30.056Z,74.11
2018-09-04T16:48:58.388Z,74.14
2018-09-04T16:51:26.912Z,74.41
2018-09-04T16:53:55.442Z,74.82
2018-09-04T16:56:23.670Z,75.58
2018-09-04T16:58:51.958Z,77.75
2018-09-04T17:01:20.227Z,79.96
2018-09-04T17:03:48.562Z,79.50
2018-09-04T17:06:16.943Z,78.56
2018-09-04T17:08:45.464Z,78.67
2018-09-04T17:11:13.750Z,79.46
2018-09-04T17:13:42.145Z,79.91
2018-09-04T17:16:10.421Z,79.75
2018-09-04T17:18:38.717Z,80.56
2018-09-04T17:21:06.896Z,80.33
2018-09-04T17:23:35.172Z,79.98
2018-09-04T17:26:03.392Z,81.42
2018-09-04T17:28:32.517Z,82.90
2018-09-04T17:31:01.193Z,81.53
2018-09-04T17:33:29.532Z,82.33
2018-09-04T17:35:57.795Z,83.30
2018-09-04T17:38:26.132Z,83.64
2018-09-04T17:40:54.530Z,83.73
2018-09-04T17:43:23.252Z,84.42
2018-09-04T17:45:51.656Z,83.87
2018-09-04T17:48:20.234Z,84.46
2018-09-04T17:50:48.843Z,84.40
2018-09-04T17:53:17.257Z,83.77
2018-09-04T17:55:45.497Z,84.67
2018-09-04T17:58:14.119Z,85.05
2018-09-04T18:00:42.439Z,85.27
2018-09-04T18:03:10.688Z,84.78
2018-09-04T18:05:40.755Z,85.24
2018-09-04T18:08:09.171Z,85.93
2018-09-04T18:10:37.496Z,85.68
2018-09-04T18:13:05.697Z,86.16
2018-09-04T18:15:34.066Z,86.52
2018-09-04T18:18:02.349Z,86.34
2018-09-04T18:20:30.768Z,86.04
2018-09-04T18:22:59.090Z,87.48
2018-09-04T18:25:27.803Z,86.83
2018-09-04T18:27:55.907Z,87.45
2018-09-04T18:30:24.118Z,88.39
2018-09-04T18:32:52.487Z,87.68
2018-09-04T18:35:20.786Z,88.48
2018-09-04T18:37:49.222Z,88.70
2018-09-04T18:40:17.584Z,88.71
2018-09-04T18:42:46.196Z,87.58
2018-09-04T18:45:25.553Z,88.33
2018-09-04T18:47:54.201Z,89.36
2018-09-04T18:50:22.538Z,88.36
2018-09-04T18:52:50.904Z,88.35
2018-09-04T18:55:19.235Z,88.21
2018-09-04T18:57:47.646Z,87.47
2018-09-04T19:00:15.985Z,86.86
2018-09-04T19:02:44.078Z,87.47
2018-09-04T19:05:12.410Z,88.80
2018-09-04T19:07:40.714Z,87.87
2018-09-04T19:10:09.065Z,87.65
2018-09-04T19:12:37.335Z,86.49
2018-09-04T19:15:05.611Z,86.89
2018-09-04T19:18:12.035Z,86.35
2018-09-04T19:20:40.377Z,87.36
2018-09-04T19:23:08.865Z,87.46
2018-09-04T19:25:37.379Z,87.23
2018-09-04T19:28:05.598Z,87.49
2018-09-04T19:30:34.115Z,87.52
2018-09-04T19:33:02.355Z,87.96
2018-09-04T19:35:30.900Z,88.97
2018-09-04T19:37:59.529Z,89.58
2018-09-04T19:40:27.842Z,89.01
2018-09-04T19:42:56.337Z,90.09
2018-09-04T19:45:24.726Z,90.17
2018-09-04T19:47:53.331Z,88.77
2018-09-04T19:50:21.673Z,91.08
2018-09-04T19:52:49.973Z,90.22
2018-09-04T19:55:18.431Z,91.03
2018-09-04T19:57:46.804Z,91.75
2018-09-04T20:00:15.206Z,90.44
2018-09-04T20:02:43.632Z,89.07
2018-09-04T20:05:11.982Z,90.22
2018-09-04T20:07:40.126Z,91.29
2018-09-04T20:10:08.681Z,90.71
2018-09-04T20:12:37.145Z,92.99
2018-09-04T20:15:05.622Z,91.28
2018-09-04T20:17:33.939Z,91.01
2018-09-04T20:20:02.157Z,91.23
2018-09-04T20:22:30.411Z,88.48
2018-09-04T20:24:58.619Z,86.30
2018-09-04T20:27:27.191Z,87.14
2018-09-04T20:29:55.479Z,87.77
2018-09-04T20:32:24.436Z,88.08
2018-09-04T20:34:52.664Z,86.45
2018-09-04T20:37:20.985Z,85.18
2018-09-04T20:39:49.350Z,87.25
2018-09-04T20:42:17.466Z,88.24
2018-09-04T20:44:45.880Z,86.64
2018-09-04T20:47:14.403Z,85.60
2018-09-04T20:49:42.631Z,87.10
2018-09-04T20:52:10.916Z,87.31
2018-09-04T20:54:39.153Z,87.14
2018-09-04T20:57:25.730Z,87.37
2018-09-04T21:00:07.234Z,84.82
2018-09-04T21:02:46.537Z,85.87
2018-09-04T21:05:26.704Z,87.19
2018-09-04T21:08:11.111Z,86.55
2018-09-04T21:10:39.812Z,85.24
2018-09-04T21:13:08.366Z,86.27
2018-09-04T21:15:36.626Z,85.27
2018-09-04T21:18:05.263Z,84.86
2018-09-04T21:20:33.529Z,87.05
2018-09-04T21:23:01.792Z,87.06
2018-09-04T21:25:29.888Z,88.27
2018-09-04T21:27:57.860Z,88.77
2018-09-04T21:30:25.988Z,87.30
2018-09-04T21:32:53.998Z,87.76
2018-09-04T21:35:22.080Z,88.81
2018-09-04T21:37:50.162Z,88.04
2018-09-04T21:40:18.395Z,88.10
2018-09-04T21:42:46.683Z,89.16
2018-09-04T21:45:14.799Z,90.73
2018-09-04T21:47:42.941Z,91.03
2018-09-04T21:50:11.366Z,90.62
2018-09-04T21:52:39.480Z,91.21
2018-09-04T21:55:07.860Z,92.36
2018-09-04T21:57:35.897Z,91.10
2018-09-04T22:00:05.101Z,90.64
2018-09-04T22:02:33.157Z,91.20
2018-09-04T22:05:01.554Z,92.33
2018-09-04T22:07:29.982Z,92.25
2018-09-04T22:09:58.314Z,92.59
2018-09-04T22:12:26.661Z,91.30
2018-09-04T22:14:54.989Z,90.79
2018-09-04T22:17:23.056Z,91.46
2018-09-04T22:19:51.107Z,92.41
2018-09-04T22:22:19.104Z,92.96
2018-09-04T22:24:47.125Z,92.81
2018-09-04T22:27:15.342Z,92.37
2018-09-04T22:29:43.650Z,93.26
2018-09-04T22:32:12.898Z,92.68
2018-09-04T22:34:40.916Z,92.78
2018-09-04T22:37:09.179Z,91.68
2018-09-04T22:39:37.207Z,92.46
2018-09-04T22:42:05.361Z,92.99
2018-09-04T22:44:33.622Z,92.33
2018-09-04T22:47:01.904Z,93.26
2018-09-04T22:49:30.377Z,94.07
2018-09-04T22:51:59.473Z,94.30
2018-09-04T22:54:27.591Z,94.09
2018-09-04T22:56:55.701Z,95.37
2018-09-04T22:59:23.952Z,96.39
2018-09-04T23:01:51.972Z,96.14
2018-09-04T23:04:20.103Z,95.87
2018-09-04T23:06:48.107Z,95.00
2018-09-04T23:09:16.193Z,96.24
2018-09-04T23:11:44.234Z,96.36
2018-09-04T23:14:12.295Z,96.87
2018-09-04T23:16:40.369Z,96.20
2018-09-04T23:19:08.525Z,95.92
2018-09-04T23:21:36.760Z,96.35
2018-09-04T23:24:05.149Z,97.14
2018-09-04T23:26:33.336Z,96.77
2018-09-04T23:29:01.499Z,97.26
2018-09-04T23:31:29.635Z,96.49
2018-09-04T23:33:57.804Z,96.79
2018-09-04T23:36:25.922Z,97.33
2018-09-04T23:38:54.046Z,98.09
2018-09-04T23:41:22.342Z,97.77
2018-09-04T23:43:50.521Z,98.17
2018-09-04T23:46:18.604Z,98.39
2018-09-04T23:48:46.754Z,98.69
2018-09-04T23:51:14.971Z,99.21
2018-09-04T23:53:43.066Z,99.04
2018-09-04T23:56:11.280Z,99.77
2018-09-04T23:58:39.386Z,99.46
